Snoqualmie River: Snoqualmie Falls station

back to: Snoqualmie river
Snoqualmie Falls station Summary - (NOAA Hydrograph: SQUW1)
flood stage: 12.88 ft
Latest reading:
Sun12/17 05:25 am 4.36 ft 1203 cfs (-180/hr)
Past 24hr max:
Sat12/16 06:50 am 4.47 ft 1287 cfs
Forecasted crests: (published Sat 12/16/17 03:15 pm)
Mon12/18 10:00 am 10.3 ft 11371 cfs
Wed12/20 04:00 am 9.91 ft 10309 cfs

Snoqualmie Falls station Details

Latest Readings

Last 100 Readings:
Sun12/17 05:25 am 4.36 ft 1203 cfs
Sun12/17 05:20 am 4.38 ft 1218 cfs
Sun12/17 05:15 am 4.36 ft 1203 cfs
Sun12/17 05:10 am 4.37 ft 1211 cfs
Sun12/17 05:05 am 4.37 ft 1211 cfs
Sun12/17 05:00 am 4.37 ft 1211 cfs
Sun12/17 04:55 am 4.37 ft 1211 cfs
Sun12/17 04:50 am 4.36 ft 1203 cfs
Sun12/17 04:45 am 4.36 ft 1203 cfs
Sun12/17 04:40 am 4.36 ft 1203 cfs
Sun12/17 04:35 am 4.36 ft 1203 cfs
Sun12/17 04:30 am 4.37 ft 1211 cfs
Sun12/17 04:25 am 4.36 ft 1203 cfs
Sun12/17 04:20 am 4.36 ft 1203 cfs
Sun12/17 04:15 am 4.37 ft 1211 cfs
Sun12/17 04:10 am 4.37 ft 1211 cfs
Sun12/17 04:05 am 4.38 ft 1218 cfs
Sun12/17 04:00 am 4.37 ft 1211 cfs
Sun12/17 03:55 am 4.38 ft 1218 cfs
Sun12/17 03:50 am 4.38 ft 1218 cfs
Sun12/17 03:45 am 4.37 ft 1211 cfs
Sun12/17 03:40 am 4.38 ft 1218 cfs
Sun12/17 03:35 am 4.37 ft 1211 cfs
Sun12/17 03:30 am 4.38 ft 1218 cfs
Sun12/17 03:25 am 4.37 ft 1211 cfs
Sun12/17 03:20 am 4.37 ft 1211 cfs
Sun12/17 03:15 am 4.38 ft 1218 cfs
Sun12/17 03:10 am 4.37 ft 1211 cfs
Sun12/17 03:05 am 4.37 ft 1211 cfs
Sun12/17 03:00 am 4.36 ft 1203 cfs
Sun12/17 02:55 am 4.36 ft 1203 cfs
Sun12/17 02:50 am 4.36 ft 1203 cfs
Sun12/17 02:45 am 4.36 ft 1203 cfs
Sun12/17 02:40 am 4.37 ft 1211 cfs
Sun12/17 02:35 am 4.37 ft 1211 cfs
Sun12/17 02:30 am 4.37 ft 1211 cfs
Sun12/17 02:25 am 4.37 ft 1211 cfs
Sun12/17 02:20 am 4.37 ft 1211 cfs
Sun12/17 02:15 am 4.37 ft 1211 cfs
Sun12/17 02:10 am 4.37 ft 1211 cfs
Sun12/17 02:05 am 4.38 ft 1218 cfs
Sun12/17 02:00 am 4.37 ft 1211 cfs
Sun12/17 01:55 am 4.37 ft 1211 cfs
Sun12/17 01:50 am 4.38 ft 1218 cfs
Sun12/17 01:45 am 4.37 ft 1211 cfs
Sun12/17 01:40 am 4.38 ft 1218 cfs
Sun12/17 01:35 am 4.37 ft 1211 cfs
Sun12/17 01:30 am 4.37 ft 1211 cfs
Sun12/17 01:25 am 4.37 ft 1211 cfs
Sun12/17 01:20 am 4.38 ft 1218 cfs
Sun12/17 01:15 am 4.38 ft 1218 cfs
Sun12/17 01:10 am 4.37 ft 1211 cfs
Sun12/17 01:05 am 4.37 ft 1211 cfs
Sun12/17 01:00 am 4.37 ft 1211 cfs
Sun12/17 12:55 am 4.37 ft 1211 cfs
Sun12/17 12:50 am 4.38 ft 1218 cfs
Sun12/17 12:45 am 4.38 ft 1218 cfs
Sun12/17 12:40 am 4.37 ft 1211 cfs
Sun12/17 12:35 am 4.37 ft 1211 cfs
Sun12/17 12:30 am 4.38 ft 1218 cfs
Sun12/17 12:25 am 4.38 ft 1218 cfs
Sun12/17 12:20 am 4.37 ft 1211 cfs
Sun12/17 12:15 am 4.38 ft 1218 cfs
Sun12/17 12:10 am 4.39 ft 1226 cfs
Sun12/17 12:05 am 4.39 ft 1226 cfs
Sun12/17 12:00 am 4.38 ft 1218 cfs
Sat12/16 11:55 pm 4.38 ft 1218 cfs
Sat12/16 11:50 pm 4.38 ft 1218 cfs
Sat12/16 11:45 pm 4.37 ft 1211 cfs
Sat12/16 11:40 pm 4.38 ft 1218 cfs
Sat12/16 11:35 pm 4.38 ft 1218 cfs
Sat12/16 11:30 pm 4.38 ft 1218 cfs
Sat12/16 11:25 pm 4.39 ft 1226 cfs
Sat12/16 11:20 pm 4.38 ft 1218 cfs
Sat12/16 11:15 pm 4.38 ft 1218 cfs
Sat12/16 11:10 pm 4.39 ft 1226 cfs
Sat12/16 11:05 pm 4.38 ft 1218 cfs
Sat12/16 11:00 pm 4.38 ft 1218 cfs
Sat12/16 10:55 pm 4.38 ft 1218 cfs
Sat12/16 10:50 pm 4.38 ft 1218 cfs
Sat12/16 10:45 pm 4.38 ft 1218 cfs
Sat12/16 10:40 pm 4.39 ft 1226 cfs
Sat12/16 10:35 pm 4.38 ft 1218 cfs
Sat12/16 10:30 pm 4.38 ft 1218 cfs
Sat12/16 10:25 pm 4.39 ft 1226 cfs
Sat12/16 10:20 pm 4.38 ft 1218 cfs
Sat12/16 10:15 pm 4.38 ft 1218 cfs
Sat12/16 10:10 pm 4.38 ft 1218 cfs
Sat12/16 10:05 pm 4.38 ft 1218 cfs
Sat12/16 10:00 pm 4.39 ft 1226 cfs
Sat12/16 09:55 pm 4.39 ft 1226 cfs
Sat12/16 09:50 pm 4.39 ft 1226 cfs
Sat12/16 09:45 pm 4.38 ft 1218 cfs
Sat12/16 09:40 pm 4.39 ft 1226 cfs
Sat12/16 09:35 pm 4.39 ft 1226 cfs
Sat12/16 09:30 pm 4.38 ft 1218 cfs
Sat12/16 09:25 pm 4.38 ft 1218 cfs
Sat12/16 09:20 pm 4.38 ft 1218 cfs
Sat12/16 09:15 pm 4.38 ft 1218 cfs
Sat12/16 09:10 pm 4.39 ft 1226 cfs

Latest Forecasts

Currently Forecasted Readings:
Sat12/16 04:00 pm 4.45 ft 1272 cfs
Sat12/16 10:00 pm 4.48 ft 1295 cfs
Sun12/17 04:00 am 4.58 ft 1370 cfs
Sun12/17 10:00 am 4.96 ft 1705 cfs
Sun12/17 04:00 pm 5.99 ft 2808 cfs
Sun12/17 10:00 pm 7.61 ft 5238 cfs
Mon12/18 04:00 am 9.42 ft 9059 cfs
Mon12/18 10:00 am 10.3 ft 11371 cfs
Mon12/18 04:00 pm 9.91 ft 10306 cfs
Mon12/18 10:00 pm 9.19 ft 8501 cfs
Tue12/19 04:00 am 8.7 ft 7392 cfs
Tue12/19 10:00 am 8.64 ft 7275 cfs
Tue12/19 04:00 pm 9.16 ft 8441 cfs
Tue12/19 10:00 pm 9.91 ft 10298 cfs
Wed12/20 04:00 am 9.91 ft 10309 cfs
Wed12/20 10:00 am 9.21 ft 8546 cfs
Wed12/20 04:00 pm 8.54 ft 7058 cfs
Wed12/20 10:00 pm 7.97 ft 5903 cfs
Thu12/21 04:00 am 7.48 ft 5005 cfs
Thu12/21 10:00 am 7.07 ft 4334 cfs
Thu12/21 04:00 pm 6.74 ft 3828 cfs
Thu12/21 10:00 pm 6.47 ft 3437 cfs
Fri12/22 04:00 am 6.25 ft 3137 cfs
Fri12/22 10:00 am 6.06 ft 2895 cfs
Fri12/22 04:00 pm 5.9 ft 2696 cfs
Fri12/22 10:00 pm 5.76 ft 2529 cfs
Sat12/23 04:00 am 5.63 ft 2385 cfs
Sat12/23 10:00 am 5.52 ft 2260 cfs
Sat12/23 04:00 pm 5.41 ft 2149 cfs
Sat12/23 10:00 pm 5.32 ft 2052 cfs
Sun12/24 04:00 am 5.23 ft 1963 cfs
Sun12/24 10:00 am 5.15 ft 1886 cfs
Sun12/24 04:00 pm 5.08 ft 1812 cfs
Sun12/24 10:00 pm 5.01 ft 1745 cfs
Mon12/25 04:00 am 4.94 ft 1687 cfs
Mon12/25 10:00 am 4.88 ft 1632 cfs
Mon12/25 04:00 pm 4.82 ft 1579 cfs
Mon12/25 10:00 pm 4.77 ft 1532 cfs
Tue12/26 04:00 am 4.72 ft 1494 cfs

Snoqualmie River flood gauge data supplied by the
National Weather Service Northwest River Forecast Center.

Sign up for Floodzilla alerts.